Grove City, Ohio
Current Conditions -  °F | °C
As of 4:35 AM on Wednesday 22 Oct 2014 (Local Time) from KTZR Reporting Station
Overcast Overcast  
Wind Chill: 38°   Ceiling: 800
Heat Index: 43°   Visibility: 10mi
Dew Point: 41°   Wind: 8mph
Humidity: 93%   Direction: 330°NNW
Pressure: 30.18"   Gusts: NA
Location:  39.87°N, 83.07°W
Report Text: KTZR 220835Z AUTO 33007KT 10SM OVC008 06/05 A3018 RMK AO2 T00620052
Loading
Personal Weather Stations






























Interactive Weather Map
Tropical Storm Tracking
New forecast layout! Learn more

10-Day Weather Forecast

Advertisements
Track Severe Weather on mobile